Amboy, WA (98601)

7:54 AM PST on December 09, 2016 (GMT -0800)
Green Mountain | | Change Station
Active Advisory: Freezing Rain Advisory

Elev 1020 ft 45.95 °N, 122.48 °W | Updated 49 seconds ago

Rain
Rain
33.1 °F
Feels Like 33 °F
N
1.6
Wind Variable Wind from South
Gusts 2.2 mph

Today
High -- | Low -- °F
--% Chance of Precip.
Yesterday
High -- | Low -- °F
Precip. -- in
Pressure 30.06 in
Visibility 3.0 miles
Clouds Overcast 500 ft
Windchill 33 °F
Dew Point 18 °F
Humidity 54%
Rainfall 0.00 in
Snow Depth Not available.
7:40 AM 4:24 PM
Waxing Gibbous, 75% visible
SPECI KSPB 091540Z AUTO 17006KT 3SM UP BR OVC005 00/M01 A3006 RMK AO2 UPB34FZRAE34 CIG 003V009 P0001 I1003 T00001011 TSNO
Pressure 30.06 in
Visibility 3.0 miles
Clouds Overcast 500 ft
Windchill 33 °F
Dew Point 18 °F
Humidity 54%
Rainfall 0.00 in
Snow Depth Not available.
7:40 AM 4:24 PM
Waxing Gibbous, 75% visible
SPECI KSPB 091540Z AUTO 17006KT 3SM UP BR OVC005 00/M01 A3006 RMK AO2 UPB34FZRAE34 CIG 003V009 P0001 I1003 T00001011 TSNO

10-Day Weather Forecast

Almanac

Astronomy

Dec. 09, 2016 Rise Set
Actual Time
Civil Twilight
Nautical Twilight
Astronomical Twilight
Moon
Length of Visible Light
Length of Day
Tomorrow will be .
, % of the Moon is Illuminated

Today's Extremes

State Highs State Lows

Community

WunderPhotos

Upload Photos

1,956,462 photos uploaded!

WunderBlog® & News

Nearby

Air Quality

  Air Quality AQ Index Pollutant
Not available.

Snow Depth

Station Depth Elevation

Earthquake Activity

City Distance Mag. Time & Date
Minimum magnitude displayed is 2.5.

Coastal Water Temperatures

Place Temperature

Stations

Nearby Weather Stations

Station Location Temp. Windchill Dew Point Humidity Wind Precip. Elev Updated Type
                   

Watches & Warnings

Freezing Rain Advisory
Issued: 6:25 AM PST Dec. 9, 2016 – National Weather Service

... Freezing Rain Advisory remains in effect for the Coast Range of
northwest Oregon... the lower Columbia and I-5 corridor in Cowlitz
County... the greater Portland and Vancouver Metro area... the
central Willamette Valley... the northern Oregon and South
Washington Cascade foothills... and the Willapa Hills until 10 am
PST this morning...

A Freezing Rain Advisory remains in effect until 10 am PST this
morning.

* Location... areas under the influence of The Gorge east winds.
From Wilsonville southward... areas west of I-5 will mainly be
impacted.

* Timing... through late morning.

* Amounts... additional ice accumulations one tenth of an inch
or less.

* Impacts... many roads... sidewalks and bike paths will be
slick. Travel on untreated roads will be difficult.

Precautionary/preparedness actions...

A Freezing Rain Advisory means that periods of freezing rain or
freezing drizzle will cause travel difficulties. Be prepared for
slippery roads. Slow down and use caution while driving.